Time;durP1;ratioP1;P1;durP2;ratioP2;P2;SDS_P1;SDS_P2;PMS_P1;PMS_P2;Temp;Humidity;BMP_temperature;BMP_pressure;BME280_temperature;BME280_humidity;BME280_pressure;Samples;Min_cycle;Max_cycle;Signal;HPM_P1;HPM_P2
2022/04/28 00:00:37;;;;;;;12.67;7.13;;;8.40;99.90;;;;;;5075002;28;20546;-70
2022/04/28 00:03:05;;;;;;;15.53;7.57;;;8.40;99.90;;;;;;5074933;28;20639;-70
2022/04/28 00:05:31;;;;;;;14.00;7.77;;;8.30;99.90;;;;;;5061678;28;20203;-70
2022/04/28 00:07:58;;;;;;;14.03;7.53;;;8.40;99.90;;;;;;5064860;28;20190;-70
2022/04/28 00:10:25;;;;;;;12.57;7.37;;;8.40;99.90;;;;;;5074732;28;20711;-70
2022/04/28 00:12:53;;;;;;;13.13;7.37;;;8.40;99.90;;;;;;5074806;28;20206;-70
2022/04/28 00:15:20;;;;;;;17.83;8.13;;;8.40;99.90;;;;;;5074779;28;20652;-71
2022/04/28 00:17:47;;;;;;;14.70;7.90;;;8.30;99.90;;;;;;5074432;28;20228;-71
2022/04/28 00:20:14;;;;;;;13.87;7.63;;;8.30;99.90;;;;;;5075803;28;20548;-71
2022/04/28 00:22:40;;;;;;;15.17;7.40;;;8.30;99.90;;;;;;5074764;28;20212;-71
2022/04/28 00:25:08;;;;;;;15.03;7.60;;;8.30;99.90;;;;;;5074353;28;20194;-71
2022/04/28 00:27:36;;;;;;;16.30;7.90;;;8.30;99.90;;;;;;5074721;28;20227;-71
2022/04/28 00:30:04;;;;;;;13.57;7.90;;;8.30;99.90;;;;;;5074446;28;20201;-71
2022/04/28 00:32:31;;;;;;;13.43;7.53;;;8.30;99.90;;;;;;5074613;28;20206;-71
2022/04/28 00:34:58;;;;;;;16.77;8.70;;;8.30;99.90;;;;;;5057539;28;20202;-70
2022/04/28 00:37:25;;;;;;;14.63;8.00;;;8.20;99.90;;;;;;5074349;28;20232;-72
2022/04/28 00:39:53;;;;;;;13.73;7.90;;;8.20;99.90;;;;;;5073994;28;20205;-70
2022/04/28 00:42:20;;;;;;;16.10;7.80;;;8.30;99.90;;;;;;5074235;28;20233;-70
2022/04/28 00:44:47;;;;;;;14.73;7.80;;;8.30;99.90;;;;;;5074038;28;20628;-69
2022/04/28 00:47:14;;;;;;;14.47;8.03;;;8.20;99.90;;;;;;5067835;28;20196;-71
2022/04/28 00:52:29;;;;;;;16.30;7.93;;;8.10;99.90;;;;;;5055379;28;20195;-70
2022/04/28 00:54:57;;;;;;;14.53;7.53;;;8.20;99.90;;;;;;5055208;28;20725;-73
2022/04/28 00:57:25;;;;;;;18.10;8.40;;;8.20;99.90;;;;;;5054082;28;20217;-71
2022/04/28 00:59:52;;;;;;;12.50;7.30;;;8.10;99.90;;;;;;5054264;28;20309;-71
2022/04/28 01:02:19;;;;;;;14.80;8.53;;;8.20;99.90;;;;;;5053983;28;20218;-72
2022/04/28 01:04:48;;;;;;;15.37;8.33;;;8.20;99.90;;;;;;5053975;28;20670;-71
2022/04/28 01:07:16;;;;;;;13.03;8.00;;;8.20;99.90;;;;;;5053705;28;20198;-70
2022/04/28 01:09:43;;;;;;;15.47;8.07;;;8.10;99.90;;;;;;5053625;28;20205;-70
2022/04/28 01:12:15;;;;;;;13.83;8.17;;;8.10;99.90;;;;;;5062521;28;20187;-70
2022/04/28 01:14:42;;;;;;;15.33;8.20;;;8.10;99.90;;;;;;5055206;28;20653;-70
2022/04/28 01:17:10;;;;;;;15.80;8.30;;;8.10;99.90;;;;;;5053663;28;20206;-70
2022/04/28 01:19:37;;;;;;;14.63;8.20;;;8.00;99.90;;;;;;5053578;28;20297;-70
2022/04/28 01:22:05;;;;;;;14.43;8.40;;;7.90;99.90;;;;;;5053528;28;20191;-70
2022/04/28 01:24:32;;;;;;;15.33;7.47;;;7.90;99.90;;;;;;5053453;28;20199;-70
2022/04/28 01:27:00;;;;;;;14.93;8.23;;;7.90;99.90;;;;;;5053426;28;20248;-70
2022/04/28 01:29:27;;;;;;;15.97;7.80;;;7.80;99.90;;;;;;5053414;28;20198;-70
2022/04/28 01:31:54;;;;;;;13.57;7.90;;;7.70;99.90;;;;;;5053476;28;20201;-70
2022/04/28 01:34:21;;;;;;;13.87;7.63;;;7.60;99.90;;;;;;5053482;28;20665;-70
2022/04/28 01:36:48;;;;;;;14.80;8.10;;;7.60;99.90;;;;;;5053510;28;20208;-70
2022/04/28 01:39:15;;;;;;;20.47;7.93;;;7.60;99.90;;;;;;5053110;28;20215;-70
2022/04/28 01:41:42;;;;;;;13.40;7.40;;;7.50;99.90;;;;;;5054536;28;20191;-70
2022/04/28 01:44:09;;;;;;;13.63;7.47;;;7.40;99.90;;;;;;5053042;28;20666;-70
2022/04/28 01:46:36;;;;;;;13.87;8.00;;;7.40;99.90;;;;;;5053153;28;20206;-70
2022/04/28 01:49:04;;;;;;;13.43;7.50;;;7.40;99.90;;;;;;5053267;28;20191;-70
2022/04/28 01:57:03;;;;;;;13.53;7.13;;;7.50;99.90;;;;;;5053026;28;20252;-70
2022/04/28 01:59:30;;;;;;;14.33;7.50;;;7.50;99.90;;;;;;5036315;28;20266;-70
2022/04/28 02:01:56;;;;;;;15.70;8.10;;;7.40;99.90;;;;;;5052662;28;20241;-70
2022/04/28 02:04:24;;;;;;;13.37;7.50;;;7.30;99.90;;;;;;5052902;28;20205;-71
2022/04/28 02:06:51;;;;;;;14.50;8.13;;;7.30;99.90;;;;;;5052659;28;20194;-70
2022/04/28 02:09:18;;;;;;;14.23;7.90;;;7.30;99.90;;;;;;5052867;28;20676;-71
2022/04/28 02:11:45;;;;;;;17.10;8.03;;;7.30;99.90;;;;;;5052731;28;20205;-71
2022/04/28 02:14:11;;;;;;;16.73;8.10;;;7.20;99.90;;;;;;5052573;28;20199;-70
2022/04/28 02:16:38;;;;;;;16.37;8.30;;;7.20;99.90;;;;;;5052316;28;20602;-70
2022/04/28 02:19:05;;;;;;;15.37;8.63;;;7.20;99.90;;;;;;5053403;28;20214;-70
2022/04/28 02:21:32;;;;;;;13.30;7.60;;;7.20;99.90;;;;;;5052779;28;20194;-70
2022/04/28 02:23:59;;;;;;;16.27;8.90;;;7.20;99.90;;;;;;5052214;28;20202;-70
2022/04/28 02:26:26;;;;;;;14.47;7.83;;;7.20;99.90;;;;;;5053558;28;20217;-70
2022/04/28 02:28:53;;;;;;;15.17;7.90;;;7.10;99.90;;;;;;5052490;28;20203;-69
2022/04/28 02:31:20;;;;;;;17.20;8.63;;;7.10;99.90;;;;;;5052279;28;20306;-71
2022/04/28 02:33:47;;;;;;;15.90;8.67;;;7.10;99.90;;;;;;5053536;28;20195;-70
2022/04/28 02:36:14;;;;;;;15.27;8.10;;;7.20;99.90;;;;;;5052110;28;20200;-70
2022/04/28 02:38:41;;;;;;;15.73;8.20;;;7.20;99.90;;;;;;5052128;28;20237;-70
2022/04/28 02:41:08;;;;;;;17.23;8.83;;;7.10;99.90;;;;;;5058057;28;20662;-71
2022/04/28 02:43:35;;;;;;;13.33;8.20;;;7.10;99.90;;;;;;5057141;28;20210;-69
2022/04/28 02:46:02;;;;;;;13.17;8.03;;;7.00;99.90;;;;;;5052217;28;20616;-72
2022/04/28 02:48:29;;;;;;;13.70;8.00;;;7.00;99.90;;;;;;5052342;28;20557;-70
2022/04/28 02:50:55;;;;;;;15.10;8.00;;;7.00;99.90;;;;;;5053324;28;20194;-71
2022/04/28 02:53:22;;;;;;;15.13;8.87;;;7.00;99.90;;;;;;5051777;28;20722;-71
2022/04/28 02:55:49;;;;;;;14.83;8.27;;;7.00;99.90;;;;;;5053157;28;20554;-71
2022/04/28 02:58:16;;;;;;;16.23;8.67;;;7.00;99.90;;;;;;5051976;28;20737;-71
2022/04/28 03:00:43;;;;;;;15.50;8.47;;;6.90;99.90;;;;;;5051728;28;20191;-70
2022/04/28 03:03:10;;;;;;;15.43;8.37;;;6.80;99.90;;;;;;5035420;28;20205;-71
2022/04/28 03:10:46;;;;;;;16.87;8.40;;;6.80;99.90;;;;;;5051882;28;20229;-71
2022/04/28 03:11:16;;;;;;;15.80;9.00;;;6.90;99.90;;;;;;5053170;28;20715;-71
2022/04/28 03:13:43;;;;;;;16.97;8.83;;;6.80;99.90;;;;;;5053072;28;20197;-70
2022/04/28 03:16:10;;;;;;;16.07;9.20;;;6.70;99.90;;;;;;5051713;28;20191;-71
2022/04/28 03:18:37;;;;;;;15.27;8.70;;;6.60;99.90;;;;;;5051789;28;20276;-71
2022/04/28 03:21:08;;;;;;;20.07;9.00;;;6.50;99.90;;;;;;5053164;28;20195;-72
2022/04/28 03:23:34;;;;;;;15.97;9.03;;;6.50;99.90;;;;;;5057789;28;20204;-71
2022/04/28 03:26:01;;;;;;;14.37;8.60;;;6.40;99.90;;;;;;5056706;28;20218;-71
2022/04/28 03:28:29;;;;;;;13.70;8.07;;;6.40;99.90;;;;;;5052576;28;20206;-71
2022/04/28 03:30:56;;;;;;;15.83;8.60;;;6.40;99.90;;;;;;5066514;28;20202;-71
2022/04/28 03:33:23;;;;;;;15.30;8.67;;;6.30;99.90;;;;;;5056806;28;20276;-71
2022/04/28 03:35:50;;;;;;;17.70;8.97;;;6.30;99.90;;;;;;5055553;28;20204;-70
2022/04/28 03:38:17;;;;;;;13.77;7.87;;;6.40;99.90;;;;;;5055447;28;20218;-71
2022/04/28 03:40:44;;;;;;;16.00;8.93;;;6.30;99.90;;;;;;5055669;28;20202;-70
2022/04/28 03:43:11;;;;;;;17.53;8.77;;;6.20;99.90;;;;;;5055487;28;20198;-70
2022/04/28 03:45:38;;;;;;;14.97;8.47;;;6.20;99.90;;;;;;5055340;28;20573;-70
2022/04/28 03:48:08;;;;;;;15.90;8.57;;;6.20;99.90;;;;;;5038486;28;20216;-73
2022/04/28 03:50:36;;;;;;;17.33;8.97;;;6.30;99.90;;;;;;5055612;28;20208;-70
2022/04/28 03:53:04;;;;;;;15.47;8.47;;;6.30;99.90;;;;;;5038630;28;20198;-71
2022/04/28 03:55:31;;;;;;;16.37;8.47;;;6.30;99.90;;;;;;5055091;28;20197;-69
2022/04/28 03:57:58;;;;;;;15.30;8.53;;;6.40;99.90;;;;;;5055090;28;20207;-70
2022/04/28 04:00:26;;;;;;;16.87;8.20;;;6.40;99.90;;;;;;5056331;28;20251;-69
2022/04/28 04:02:53;;;;;;;15.17;8.77;;;6.50;99.90;;;;;;5054890;28;20258;-71
2022/04/28 04:05:20;;;;;;;14.60;8.73;;;6.50;99.90;;;;;;5055014;28;20213;-70
2022/04/28 04:07:46;;;;;;;17.30;8.30;;;6.50;99.90;;;;;;5038634;28;20198;-72
2022/04/28 04:10:13;;;;;;;14.97;8.43;;;6.50;99.90;;;;;;5056071;28;20193;-72
2022/04/28 04:12:40;;;;;;;14.43;8.63;;;6.60;99.90;;;;;;5056210;28;20217;-72
2022/04/28 04:15:08;;;;;;;16.17;8.60;;;6.60;99.90;;;;;;5054630;28;20307;-74
2022/04/28 04:17:42;;;;;;;16.27;8.17;;;6.60;99.90;;;;;;5054717;28;20644;-72
2022/04/28 04:20:09;;;;;;;14.40;8.43;;;6.70;99.90;;;;;;5054681;28;20272;-70
2022/04/28 04:22:37;;;;;;;17.17;8.60;;;6.70;99.90;;;;;;5054723;28;20220;-71
2022/04/28 04:25:04;;;;;;;17.17;8.63;;;6.80;99.90;;;;;;5054354;28;20198;-72
2022/04/28 04:27:31;;;;;;;17.17;9.03;;;6.70;99.90;;;;;;5054689;28;20198;-71
2022/04/28 04:29:58;;;;;;;16.03;8.50;;;6.80;99.90;;;;;;5055769;28;20225;-72
2022/04/28 04:32:25;;;;;;;15.87;8.93;;;6.90;99.90;;;;;;5054399;28;20659;-71
2022/04/28 04:34:53;;;;;;;15.73;9.17;;;7.00;99.90;;;;;;5054306;28;20199;-72
2022/04/28 04:37:21;;;;;;;17.73;8.80;;;7.00;99.90;;;;;;5054278;28;20203;-72
2022/04/28 04:39:51;;;;;;;15.70;8.67;;;7.10;99.90;;;;;;5054030;28;20230;-72
2022/04/28 04:42:18;;;;;;;16.33;8.70;;;7.20;99.90;;;;;;5055312;28;20199;-72
2022/04/28 04:44:45;;;;;;;14.73;8.60;;;7.30;99.90;;;;;;5054013;28;20202;-72
2022/04/28 04:47:12;;;;;;;16.90;8.80;;;7.30;99.90;;;;;;5054114;28;20202;-72
2022/04/28 04:49:38;;;;;;;14.63;9.10;;;7.40;99.90;;;;;;5054167;28;20202;-72
2022/04/28 04:52:06;;;;;;;14.37;7.70;;;7.40;99.90;;;;;;5054073;28;20191;-71
2022/04/28 04:54:32;;;;;;;12.80;7.67;;;7.40;99.90;;;;;;5053627;28;20219;-71
2022/04/28 04:57:00;;;;;;;14.67;8.70;;;7.40;99.90;;;;;;5065224;28;20198;-71
2022/04/28 04:59:26;;;;;;;16.77;8.83;;;7.40;99.90;;;;;;5053824;28;20225;-71
2022/04/28 05:01:53;;;;;;;14.57;8.80;;;7.40;99.90;;;;;;5053826;28;20236;-71
2022/04/28 05:04:20;;;;;;;13.97;7.90;;;7.50;99.90;;;;;;5055009;28;20187;-71
2022/04/28 05:06:47;;;;;;;16.07;8.60;;;7.60;99.90;;;;;;5053610;28;20202;-71
2022/04/28 05:09:15;;;;;;;13.50;7.70;;;7.70;99.90;;;;;;5053630;28;20195;-72
2022/04/28 05:11:42;;;;;;;15.03;8.23;;;7.80;99.90;;;;;;5053701;28;20210;-73
2022/04/28 05:14:09;;;;;;;15.50;8.40;;;7.90;99.90;;;;;;5053608;28;20199;-72
2022/04/28 05:16:36;;;;;;;13.13;7.50;;;8.00;99.90;;;;;;5054884;28;20241;-71
2022/04/28 05:19:02;;;;;;;13.90;7.70;;;8.10;99.90;;;;;;5053491;28;20225;-72
2022/04/28 05:21:29;;;;;;;14.37;7.93;;;8.20;99.90;;;;;;5053951;28;20229;-71
2022/04/28 05:23:56;;;;;;;19.17;7.90;;;8.40;99.90;;;;;;5054796;28;20179;-71
2022/04/28 05:26:24;;;;;;;14.67;7.53;;;8.50;99.90;;;;;;5053311;28;20201;-71
2022/04/28 05:28:51;;;;;;;16.30;8.07;;;8.60;99.90;;;;;;5053238;28;20275;-71
2022/04/28 05:31:18;;;;;;;15.03;7.90;;;8.70;99.90;;;;;;5053295;28;20206;-71
2022/04/28 05:33:45;;;;;;;15.93;7.63;;;8.80;99.90;;;;;;5053437;28;20209;-71
2022/04/28 05:36:14;;;;;;;13.27;7.60;;;8.80;99.90;;;;;;5053213;28;20226;-73
2022/04/28 05:38:41;;;;;;;15.37;7.73;;;8.90;99.90;;;;;;5054662;28;20218;-73
2022/04/28 05:41:08;;;;;;;16.20;8.03;;;8.90;99.90;;;;;;5053064;28;20637;-72
2022/04/28 05:46:23;;;;;;;16.27;7.63;;;9.00;99.90;;;;;;5052947;28;20191;-70
2022/04/28 05:48:51;;;;;;;16.77;8.30;;;9.00;99.90;;;;;;5036574;28;20252;-71
2022/04/28 05:51:18;;;;;;;13.57;7.23;;;9.00;99.90;;;;;;5052748;28;20198;-72
2022/04/28 05:53:45;;;;;;;16.27;8.27;;;9.00;99.90;;;;;;5069238;28;20222;-71
2022/04/28 05:56:11;;;;;;;15.93;8.00;;;9.10;99.90;;;;;;5036186;28;20571;-70
2022/04/28 05:58:38;;;;;;;16.67;8.40;;;9.10;99.90;;;;;;5052817;28;20378;-77
2022/04/28 06:01:05;;;;;;;15.20;7.97;;;9.20;99.90;;;;;;5053780;28;20779;-76
2022/04/28 06:03:33;;;;;;;14.67;8.30;;;9.20;99.90;;;;;;5052724;28;20194;-72
2022/04/28 06:06:00;;;;;;;17.07;8.70;;;9.30;99.90;;;;;;5052656;28;20195;-76
2022/04/28 06:08:27;;;;;;;15.13;7.83;;;9.40;99.90;;;;;;5053858;28;20203;-74
2022/04/28 06:10:57;;;;;;;15.17;7.40;;;9.60;99.90;;;;;;5052410;28;20194;-74
2022/04/28 06:13:24;;;;;;;11.73;7.17;;;9.70;99.90;;;;;;5052827;28;20206;-74
2022/04/28 06:15:51;;;;;;;12.83;7.50;;;9.80;99.90;;;;;;5052517;28;20202;-73
2022/04/28 06:18:18;;;;;;;13.53;7.83;;;9.90;99.90;;;;;;5052636;28;20203;-76
2022/04/28 06:20:45;;;;;;;12.63;7.13;;;10.00;99.90;;;;;;5052523;28;20190;-80
2022/04/28 06:23:12;;;;;;;12.20;7.03;;;10.20;99.90;;;;;;5052560;28;20210;-79
2022/04/28 06:25:39;;;;;;;15.40;7.67;;;10.40;99.90;;;;;;5052029;28;20202;-79
2022/04/28 06:28:07;;;;;;;11.97;7.03;;;10.60;99.90;;;;;;5052583;28;20286;-79
2022/04/28 06:30:34;;;;;;;12.80;8.03;;;10.70;99.90;;;;;;5065476;28;20555;-78
2022/04/28 06:33:01;;;;;;;13.03;7.20;;;10.60;99.90;;;;;;5055638;28;20206;-77
2022/04/28 06:35:28;;;;;;;14.27;8.20;;;10.50;99.90;;;;;;5070180;28;20201;-79
2022/04/28 06:37:55;;;;;;;15.57;8.20;;;10.60;99.90;;;;;;5072113;28;20198;-79
2022/04/28 06:40:22;;;;;;;14.63;7.90;;;10.50;99.90;;;;;;5072032;28;20256;-78
2022/04/28 06:42:51;;;;;;;13.40;7.70;;;10.60;99.90;;;;;;5071934;28;20205;-75
2022/04/28 06:45:19;;;;;;;19.13;8.10;;;10.50;99.90;;;;;;5072162;28;20564;-78
2022/04/28 06:47:45;;;;;;;14.33;7.50;;;10.80;99.90;;;;;;5073594;28;20255;-73
2022/04/28 06:50:12;;;;;;;12.70;7.37;;;11.10;99.90;;;;;;5072144;28;20194;-72
2022/04/28 06:52:40;;;;;;;12.57;7.33;;;11.10;99.90;;;;;;5072122;28;20629;-77
2022/04/28 06:55:09;;;;;;;13.07;7.43;;;11.20;99.90;;;;;;5071773;28;20226;-75
2022/04/28 06:57:37;;;;;;;11.37;7.23;;;11.50;99.90;;;;;;5071946;28;20204;-75
2022/04/28 07:00:06;;;;;;;13.50;7.23;;;11.30;99.90;;;;;;5071842;28;20230;-78
2022/04/28 07:02:33;;;;;;;12.53;7.03;;;11.30;99.90;;;;;;5072308;28;20249;-77
2022/04/28 07:05:01;;;;;;;15.40;7.40;;;11.60;99.90;;;;;;5065167;28;20190;-79
2022/04/28 07:07:27;;;;;;;15.83;7.43;;;11.80;99.90;;;;;;5057950;28;20194;-78
2022/04/28 07:09:54;;;;;;;12.93;7.40;;;11.70;99.90;;;;;;5035403;28;20636;-78
2022/04/28 07:12:39;;;;;;;12.37;7.10;;;11.60;99.90;;;;;;5051762;28;20268;-78
2022/04/28 07:15:06;;;;;;;13.20;7.63;;;11.70;99.90;;;;;;5035612;28;20203;-80
2022/04/28 07:17:33;;;;;;;14.97;8.00;;;11.40;99.90;;;;;;5051697;28;20195;-77
2022/04/28 07:20:00;;;;;;;12.80;7.50;;;11.50;99.90;;;;;;5051711;28;20218;-80
2022/04/28 07:22:27;;;;;;;14.93;7.03;;;11.50;99.90;;;;;;5052969;28;20185;-79
2022/04/28 07:24:54;;;;;;;14.17;7.00;;;11.70;99.90;;;;;;5035168;28;20265;-79
2022/04/28 07:27:21;;;;;;;13.93;7.60;;;11.80;99.90;;;;;;5051598;28;20195;-76
2022/04/28 07:29:48;;;;;;;11.43;7.40;;;11.70;99.90;;;;;;5053000;28;20218;-76
2022/04/28 07:32:15;;;;;;;13.47;7.13;;;11.60;99.90;;;;;;5052576;28;20201;-76
2022/04/28 07:34:47;;;;;;;12.17;6.80;;;11.70;99.90;;;;;;5051431;28;20207;-75
2022/04/28 07:37:13;;;;;;;14.17;7.37;;;11.90;99.90;;;;;;5051314;28;20592;-78
2022/04/28 07:39:40;;;;;;;14.17;6.43;;;12.20;99.90;;;;;;5051608;28;20223;-73
2022/04/28 07:42:07;;;;;;;12.17;6.93;;;12.30;99.90;;;;;;5051660;28;20205;-70
2022/04/28 07:44:37;;;;;;;14.17;7.27;;;12.20;99.90;;;;;;5050905;28;20210;-75
2022/04/28 07:47:04;;;;;;;14.10;7.27;;;12.10;99.90;;;;;;5051482;28;20190;-73
2022/04/28 07:49:31;;;;;;;15.90;6.37;;;12.20;99.90;;;;;;5051418;28;20187;-76
2022/04/28 07:51:58;;;;;;;13.97;6.53;;;12.20;99.90;;;;;;5056229;28;20294;-77
2022/04/28 07:54:24;;;;;;;13.27;6.70;;;12.30;99.90;;;;;;5068219;28;20219;-73
2022/04/28 07:56:51;;;;;;;14.90;7.10;;;12.40;99.90;;;;;;5052440;28;20281;-71
2022/04/28 07:59:18;;;;;;;12.57;6.73;;;12.20;99.90;;;;;;5067692;28;20218;-75
2022/04/28 08:01:50;;;;;;;14.90;6.87;;;12.30;99.90;;;;;;5042078;28;20270;-74
2022/04/28 08:04:18;;;;;;;14.83;6.77;;;12.30;99.90;;;;;;5051295;28;20226;-81
2022/04/28 08:06:47;;;;;;;14.53;7.00;;;12.30;99.90;;;;;;5051272;28;20198;-73
2022/04/28 08:09:14;;;;;;;13.37;7.47;;;12.20;99.90;;;;;;5051207;28;20198;-76
2022/04/28 08:11:42;;;;;;;14.50;7.67;;;12.30;99.90;;;;;;5057147;28;20621;-78
2022/04/28 08:14:09;;;;;;;15.10;7.13;;;12.40;99.90;;;;;;5065587;28;20195;-75
2022/04/28 08:16:36;;;;;;;17.70;6.90;;;12.50;99.90;;;;;;5056218;28;20571;-77
2022/04/28 08:19:03;;;;;;;17.30;7.20;;;12.60;99.90;;;;;;5065494;28;20656;-74
2022/04/28 08:21:31;;;;;;;13.80;6.73;;;12.80;99.90;;;;;;5054927;28;20668;-78
2022/04/28 08:23:58;;;;;;;13.83;6.40;;;12.90;99.90;;;;;;5054752;28;20187;-78
2022/04/28 08:26:25;;;;;;;13.67;6.93;;;13.10;99.90;;;;;;5054656;28;20201;-74
2022/04/28 08:28:52;;;;;;;18.67;7.13;;;13.20;99.90;;;;;;5067754;28;20277;-77
2022/04/28 08:31:19;;;;;;;12.57;6.73;;;13.40;99.90;;;;;;5074710;28;20194;-76
2022/04/28 08:33:47;;;;;;;15.17;6.63;;;13.60;99.90;;;;;;5057819;28;20203;-77
2022/04/28 08:36:15;;;;;;;11.90;6.80;;;13.80;99.90;;;;;;5074169;28;20202;-74
2022/04/28 08:38:43;;;;;;;14.53;7.43;;;14.00;99.90;;;;;;5074400;28;20299;-79
2022/04/28 08:41:12;;;;;;;12.30;6.77;;;14.20;99.90;;;;;;5074208;28;20712;-76
2022/04/28 08:43:42;;;;;;;16.57;7.07;;;14.40;99.90;;;;;;5074588;28;21017;-74
2022/04/28 08:48:56;;;;;;;12.83;6.87;;;14.60;99.90;;;;;;5073419;28;20738;-74
2022/04/28 08:51:25;;;;;;;17.13;6.77;;;14.80;99.90;;;;;;5074647;28;20244;-77
2022/04/28 08:53:54;;;;;;;13.00;7.03;;;14.80;99.90;;;;;;5073969;28;20214;-76
2022/04/28 08:56:22;;;;;;;13.67;7.00;;;14.80;99.90;;;;;;5074126;28;20655;-80
2022/04/28 08:58:49;;;;;;;12.07;6.60;;;14.90;99.90;;;;;;5073991;28;20288;-82
2022/04/28 09:01:16;;;;;;;15.33;7.37;;;14.90;99.90;;;;;;5073856;28;20328;-80
2022/04/28 09:03:43;;;;;;;11.37;5.97;;;15.00;99.90;;;;;;5056766;28;20230;-70
2022/04/28 09:06:34;;;;;;;11.50;6.00;;;15.10;99.90;;;;;;5068055;28;20200;-80
2022/04/28 09:09:05;;;;;;;13.27;5.90;;;15.20;99.90;;;;;;5074306;28;20200;-75
2022/04/28 09:11:42;;;;;;;12.27;6.27;;;15.30;99.90;;;;;;5073892;28;20206;-79
2022/04/28 09:14:12;;;;;;;15.03;5.80;;;15.60;99.90;;;;;;5073615;28;20207;-69
2022/04/28 09:16:43;;;;;;;9.13;5.30;;;15.90;99.90;;;;;;5057171;28;20198;-73
2022/04/28 09:19:19;;;;;;;12.60;5.20;;;15.90;98.00;;;;;;5073838;28;20204;-79
2022/04/28 09:21:47;;;;;;;10.70;5.20;;;16.00;97.70;;;;;;5073726;28;20677;-80
2022/04/28 09:24:14;;;;;;;8.93;5.20;;;16.20;95.40;;;;;;5073654;28;20186;-67
2022/04/28 09:26:41;;;;;;;9.77;5.10;;;16.30;93.80;;;;;;5057755;28;20202;-71
2022/04/28 09:29:16;;;;;;;11.10;5.20;;;16.10;94.20;;;;;;5073563;28;20202;-80
2022/04/28 09:31:44;;;;;;;12.67;5.70;;;16.50;95.30;;;;;;5073534;28;20202;-81
2022/04/28 09:34:31;;;;;;;10.57;5.33;;;16.90;94.50;;;;;;5073080;28;20190;-69
2022/04/28 09:36:59;;;;;;;10.90;5.20;;;17.50;92.90;;;;;;5073413;28;20202;-77
2022/04/28 09:42:31;;;;;;;11.17;5.57;;;18.80;90.00;;;;;;5073442;28;20202;-79
2022/04/28 09:45:00;;;;;;;10.07;5.30;;;19.10;82.90;;;;;;5072976;28;20569;-81
2022/04/28 09:47:30;;;;;;;11.13;5.20;;;19.40;76.80;;;;;;5073196;28;20198;-76
2022/04/28 09:49:58;;;;;;;8.73;5.60;;;19.90;75.80;;;;;;5073088;28;20284;-77
2022/04/28 09:52:32;;;;;;;10.87;6.30;;;20.20;73.90;;;;;;5073209;28;20213;-73
2022/04/28 09:55:03;;;;;;;8.30;5.47;;;20.20;68.90;;;;;;5072688;28;20722;-78
2022/04/28 09:57:30;;;;;;;10.40;5.63;;;20.70;69.30;;;;;;5056370;28;20202;-80
2022/04/28 09:59:59;;;;;;;14.38;5.97;;;20.80;67.80;;;;;;5072689;28;20707;-81
2022/04/28 10:02:27;;;;;;;10.97;6.03;;;20.60;63.80;;;;;;5056353;28;20233;-80
2022/04/28 10:05:01;;;;;;;10.67;6.00;;;20.10;63.50;;;;;;5073926;28;20273;-78
2022/04/28 10:07:29;;;;;;;10.77;5.87;;;20.00;63.90;;;;;;5072451;28;20190;-77
2022/04/28 10:09:56;;;;;;;9.03;5.60;;;20.70;64.20;;;;;;5061251;28;20222;-80
2022/04/28 10:12:26;;;;;;;8.88;5.72;;;21.30;62.30;;;;;;5067976;28;20198;-78
2022/04/28 10:14:54;;;;;;;10.52;5.93;;;21.60;63.40;;;;;;5052526;28;20210;-77
2022/04/28 10:17:30;;;;;;;10.23;5.63;;;21.60;58.70;;;;;;5064173;28;20201;-80
2022/04/28 10:20:13;;;;;;;10.32;5.82;;;21.70;58.20;;;;;;5072584;28;20304;-80
2022/04/28 10:23:03;;;;;;;8.00;5.60;;;21.90;57.70;;;;;;5059896;28;20202;-76
2022/04/28 10:34:13;;;;;;;8.30;6.00;;;22.70;56.20;;;;;;5052300;28;20194;-81
2022/04/28 10:37:12;;;;;;;10.88;5.70;;;23.00;54.20;;;;;;5052087;28;20194;-81
2022/04/28 10:39:41;;;;;;;6.97;5.35;;;23.20;53.70;;;;;;5011324;28;20204;-78
2022/04/28 10:42:19;;;;;;;7.97;6.40;;;23.20;54.80;;;;;;4979121;28;20207;-79
2022/04/28 10:44:54;;;;;;;8.93;6.20;;;23.30;52.50;;;;;;4995084;28;20203;-80
2022/04/28 10:47:28;;;;;;;8.95;5.72;;;22.70;53.10;;;;;;5011647;28;20270;-74
2022/04/28 10:49:55;;;;;;;9.23;4.95;;;22.90;54.90;;;;;;4995056;28;20250;-81
2022/04/28 10:52:25;;;;;;;7.18;5.10;;;23.40;54.70;;;;;;4985645;28;20712;-82
2022/04/28 10:55:00;;;;;;;9.20;5.38;;;23.50;54.20;;;;;;5005341;28;20310;-81
2022/04/28 10:57:37;;;;;;;7.55;5.55;;;22.90;53.00;;;;;;5012261;28;20191;-82
2022/04/28 11:00:05;;;;;;;8.05;4.95;;;22.60;55.00;;;;;;5026464;28;20322;-76
2022/04/28 11:02:32;;;;;;;8.10;5.30;;;22.50;54.40;;;;;;4994634;28;20232;-80
2022/04/28 11:05:27;;;;;;;8.20;5.70;;;22.50;54.80;;;;;;5011025;28;20211;-79
2022/04/28 11:07:54;;;;;;;8.07;5.30;;;22.90;52.80;;;;;;5011125;28;20282;-84
2022/04/28 11:10:20;;;;;;;7.35;4.70;;;23.00;53.00;;;;;;5030216;28;20290;-78
2022/04/28 11:12:50;;;;;;;6.38;4.93;;;23.30;52.70;;;;;;5014146;28;20203;-80
2022/04/28 11:15:25;;;;;;;6.43;5.00;;;23.30;51.40;;;;;;5040904;28;20293;-81
2022/04/28 11:17:52;;;;;;;9.40;4.95;;;23.30;50.70;;;;;;5051978;28;20285;-78
2022/04/28 11:20:21;;;;;;;7.47;5.20;;;23.90;50.20;;;;;;5052720;28;20210;-77
2022/04/28 11:22:54;;;;;;;8.13;4.65;;;23.50;50.30;;;;;;5053035;28;20197;-68
2022/04/28 11:25:22;;;;;;;6.18;4.40;;;23.80;52.60;;;;;;5051505;28;20592;-80
2022/04/28 11:27:51;;;;;;;6.93;4.80;;;23.80;51.20;;;;;;5051664;28;20191;-78
2022/04/28 11:30:20;;;;;;;8.30;5.30;;;23.90;51.70;;;;;;5052512;28;20190;-80
2022/04/28 11:32:51;;;;;;;8.00;4.85;;;23.50;50.60;;;;;;5051747;28;20202;-79
2022/04/28 11:35:19;;;;;;;7.40;5.25;;;22.80;51.00;;;;;;5051391;28;20556;-78
2022/04/28 11:37:52;;;;;;;8.27;4.85;;;22.00;51.70;;;;;;5052752;28;20672;-77
2022/04/28 11:40:20;;;;;;;7.82;4.72;;;21.60;53.20;;;;;;5051351;28;20261;-76
2022/04/28 11:42:59;;;;;;;6.70;4.70;;;21.00;54.60;;;;;;5051103;28;20214;-78
2022/04/28 11:45:29;;;;;;;8.57;4.80;;;20.30;55.40;;;;;;5051350;28;20233;-77
2022/04/28 11:47:57;;;;;;;9.70;4.87;;;20.10;56.50;;;;;;5068394;28;20763;-74
2022/04/28 11:50:27;;;;;;;6.97;4.47;;;20.00;56.10;;;;;;5052367;28;20191;-78
2022/04/28 11:52:59;;;;;;;7.83;4.40;;;20.40;57.30;;;;;;5055460;28;20203;-79
2022/04/28 11:55:33;;;;;;;7.23;4.87;;;21.00;57.00;;;;;;5055175;28;20257;-81
2022/04/28 11:58:01;;;;;;;7.13;4.30;;;21.40;55.40;;;;;;5072276;28;20231;-81
2022/04/28 12:00:34;;;;;;;8.60;4.37;;;22.30;54.00;;;;;;5065199;28;20226;-80
2022/04/28 12:03:03;;;;;;;6.53;4.27;;;22.20;53.30;;;;;;5059662;28;20244;-79
2022/04/28 12:05:32;;;;;;;7.67;4.37;;;22.40;53.20;;;;;;5073079;28;20198;-77
2022/04/28 12:08:00;;;;;;;6.30;4.50;;;22.00;53.20;;;;;;5063840;28;20206;-80
2022/04/28 12:16:07;;;;;;;7.60;4.10;;;21.00;56.20;;;;;;5061507;28;20191;-77
2022/04/28 12:21:37;;;;;;;7.30;4.20;;;21.40;55.00;;;;;;5074830;28;20666;-78
2022/04/28 12:24:11;;;;;;;6.27;4.90;;;22.00;55.30;;;;;;5074761;28;20249;-73
2022/04/28 12:26:44;;;;;;;8.15;4.53;;;22.50;52.80;;;;;;5074640;28;20209;-68
2022/04/28 12:29:14;;;;;;;8.32;4.70;;;22.80;54.10;;;;;;5074551;28;20210;-75
2022/04/28 12:31:42;;;;;;;7.37;4.83;;;22.60;51.70;;;;;;5074362;28;20198;-77
2022/04/28 12:34:20;;;;;;;6.40;4.77;;;22.40;51.70;;;;;;5059381;28;20659;-77
2022/04/28 12:36:56;;;;;;;8.93;4.70;;;21.90;52.40;;;;;;5054569;28;20289;-77
2022/04/28 12:39:29;;;;;;;7.20;4.40;;;21.60;53.80;;;;;;5054590;28;20637;-75
2022/04/28 12:41:56;;;;;;;6.10;4.40;;;21.10;54.10;;;;;;5070964;28;20226;-76
2022/04/28 12:44:23;;;;;;;7.73;4.60;;;21.00;55.10;;;;;;5054177;28;20241;-75
2022/04/28 12:46:55;;;;;;;6.90;4.60;;;20.60;54.70;;;;;;5070917;28;20194;-80
2022/04/28 12:49:23;;;;;;;6.90;4.67;;;20.10;56.20;;;;;;5070988;28;20201;-70
2022/04/28 12:51:56;;;;;;;12.10;4.73;;;20.50;56.70;;;;;;5054054;28;20671;-77
2022/04/28 12:54:32;;;;;;;8.23;4.93;;;21.00;56.60;;;;;;5053750;28;20237;-72
2022/04/28 12:57:03;;;;;;;9.20;5.10;;;21.40;55.20;;;;;;5070802;28;20201;-80
2022/04/28 12:59:37;;;;;;;9.50;5.10;;;22.00;55.30;;;;;;5054191;28;20198;-77
2022/04/28 13:02:05;;;;;;;7.53;5.37;;;22.10;53.50;;;;;;5070008;28;20273;-79
2022/04/28 13:04:37;;;;;;;8.90;4.97;;;21.90;52.60;;;;;;5054349;28;20195;-68
2022/04/28 13:07:08;;;;;;;8.83;4.33;;;22.10;52.90;;;;;;5059633;28;20186;-76
2022/04/28 13:09:35;;;;;;;7.27;4.73;;;21.90;53.20;;;;;;5073972;28;20206;-79
2022/04/28 13:12:02;;;;;;;6.43;4.85;;;22.50;52.20;;;;;;5073051;28;20571;-72
2022/04/28 13:14:29;;;;;;;7.50;4.73;;;23.00;50.00;;;;;;5062777;28;20293;-77
2022/04/28 13:16:56;;;;;;;7.07;4.47;;;23.20;50.40;;;;;;5073774;28;20237;-72
2022/04/28 13:19:23;;;;;;;10.40;4.13;;;23.80;51.00;;;;;;5073731;28;20205;-70
2022/04/28 13:21:50;;;;;;;5.90;4.30;;;24.20;50.10;;;;;;5056896;28;20325;-74
2022/04/28 13:24:17;;;;;;;5.97;3.80;;;24.60;48.30;;;;;;5074009;28;20197;-77
2022/04/28 13:26:45;;;;;;;6.82;4.43;;;24.80;47.40;;;;;;5055476;28;20217;-78